createdAt,value
2019-04-21T00:01:24.394Z,13.21
2019-04-21T00:04:09.495Z,13.17
2019-04-21T00:07:01.209Z,13.17
2019-04-21T00:09:32.585Z,13.07
2019-04-21T00:12:02.434Z,13.07
2019-04-21T00:14:30.252Z,12.99
2019-04-21T00:17:03.101Z,12.99
2019-04-21T00:19:34.940Z,12.99
2019-04-21T00:22:19.482Z,12.93
2019-04-21T00:24:58.372Z,12.77
2019-04-21T00:27:36.887Z,12.77
2019-04-21T00:30:15.764Z,12.73
2019-04-21T00:32:39.300Z,12.71
2019-04-21T00:35:11.789Z,12.73
2019-04-21T00:38:00.862Z,12.63
2019-04-21T00:40:41.443Z,12.59
2019-04-21T00:43:08.958Z,12.49
2019-04-21T00:45:39.314Z,12.34
2019-04-21T00:48:25.763Z,12.34
2019-04-21T00:51:19.838Z,12.41
2019-04-21T00:53:43.852Z,12.41
2019-04-21T00:56:18.170Z,12.41
2019-04-21T00:58:48.714Z,12.22
2019-04-21T01:01:21.977Z,12.34
2019-04-21T01:03:57.800Z,12.37
2019-04-21T01:06:35.190Z,12.25
2019-04-21T01:09:07.950Z,12.11
2019-04-21T01:11:44.614Z,12.20
2019-04-21T01:14:31.089Z,12.20
2019-04-21T01:17:00.701Z,12.15
2019-04-21T01:19:26.992Z,12.15
2019-04-21T01:21:44.188Z,12.06
2019-04-21T01:24:24.533Z,12.06
2019-04-21T01:27:04.727Z,12.02
2019-04-21T01:29:58.453Z,11.97
2019-04-21T01:32:25.346Z,11.87
2019-04-21T01:35:02.373Z,11.87
2019-04-21T01:37:44.070Z,11.78
2019-04-21T01:40:19.104Z,11.80
2019-04-21T01:42:55.664Z,11.80
2019-04-21T01:45:31.894Z,11.59
2019-04-21T01:48:05.818Z,11.59
2019-04-21T01:50:43.889Z,11.43
2019-04-21T01:53:24.178Z,11.47
2019-04-21T01:55:54.527Z,11.47
2019-04-21T01:58:22.982Z,11.50
2019-04-21T02:01:01.050Z,11.43
2019-04-21T02:03:52.570Z,11.40
2019-04-21T02:06:22.799Z,11.40
2019-04-21T02:08:52.555Z,11.20
2019-04-21T02:11:31.314Z,11.20
2019-04-21T02:14:29.860Z,11.01
2019-04-21T02:16:40.709Z,11.01
2019-04-21T02:19:13.869Z,11.04
2019-04-21T02:21:43.281Z,11.02
2019-04-21T02:24:35.186Z,11.02
2019-04-21T02:27:07.094Z,11.06
2019-04-21T02:29:41.287Z,10.89
2019-04-21T02:35:08.400Z,10.61
2019-04-21T02:37:40.326Z,10.73
2019-04-21T02:42:46.340Z,10.71
2019-04-21T02:45:28.431Z,10.69
2019-04-21T02:50:33.578Z,10.43
2019-04-21T02:53:09.515Z,10.54
2019-04-21T02:55:44.665Z,10.49
2019-04-21T03:00:55.505Z,10.44
2019-04-21T03:08:49.679Z,10.19
2019-04-21T03:13:59.360Z,10.28
2019-04-21T03:16:25.750Z,10.23
2019-04-21T03:21:42.202Z,10.13
2019-04-21T03:24:29.711Z,10.13
2019-04-21T03:29:29.518Z,9.98
2019-04-21T03:35:25.906Z,9.94
2019-04-21T03:37:16.743Z,9.90
2019-04-21T03:42:30.770Z,9.91
2019-04-21T03:44:59.979Z,9.87
2019-04-21T03:47:32.487Z,9.87
2019-04-21T03:50:11.414Z,9.78
2019-04-21T03:52:50.432Z,9.78
2019-04-21T04:00:58.278Z,9.67
2019-04-21T04:03:33.024Z,9.66
2019-04-21T04:16:26.104Z,9.42
2019-04-21T04:29:18.306Z,9.32
2019-04-21T04:31:42.769Z,9.38
2019-04-21T04:34:27.547Z,9.22
2019-04-21T04:37:07.442Z,8.88
2019-04-21T04:42:31.532Z,8.93
2019-04-21T04:47:34.984Z,9.35
2019-04-21T04:49:53.379Z,9.35
2019-04-21T04:55:17.160Z,9.34
2019-04-21T04:57:55.342Z,9.34
2019-04-21T05:00:25.864Z,9.38
2019-04-21T05:05:30.097Z,9.39
2019-04-21T05:11:01.463Z,9.50
2019-04-21T05:13:21.379Z,9.50
2019-04-21T05:15:51.273Z,9.39
2019-04-21T05:18:35.060Z,9.43
2019-04-21T05:21:12.459Z,9.58
2019-04-21T05:23:31.360Z,9.63
2019-04-21T05:25:58.422Z,9.68
2019-04-21T05:28:32.688Z,9.72
2019-04-21T05:31:18.250Z,9.81
2019-04-21T05:33:57.729Z,9.81
2019-04-21T05:36:30.874Z,9.87
2019-04-21T05:39:01.167Z,9.96
2019-04-21T05:41:29.085Z,10.02
2019-04-21T05:44:13.314Z,10.09
2019-04-21T05:46:59.418Z,10.09
2019-04-21T05:49:23.154Z,10.11
2019-04-21T05:51:55.701Z,10.23
2019-04-21T05:57:10.180Z,10.34
2019-04-21T05:59:49.078Z,10.33
2019-04-21T06:02:24.201Z,10.51
2019-04-21T06:07:34.832Z,10.47
2019-04-21T06:10:08.604Z,10.34
2019-04-21T06:12:49.777Z,10.64
2019-04-21T06:15:21.349Z,10.64
2019-04-21T06:18:02.780Z,10.82
2019-04-21T06:20:38.514Z,10.82
2019-04-21T06:23:03.077Z,10.97
2019-04-21T06:25:54.564Z,11.30
2019-04-21T06:28:20.689Z,11.30
2019-04-21T06:31:05.946Z,11.26
2019-04-21T06:33:46.005Z,11.44
2019-04-21T06:38:58.295Z,11.64
2019-04-21T06:41:21.528Z,11.51
2019-04-21T06:43:56.309Z,11.51
2019-04-21T06:46:33.424Z,11.64
2019-04-21T06:51:38.971Z,12.06
2019-04-21T06:54:30.627Z,12.46
2019-04-21T06:56:47.956Z,12.62
2019-04-21T06:59:20.785Z,12.62
2019-04-21T07:02:13.462Z,12.61
2019-04-21T07:04:40.873Z,12.61
2019-04-21T07:07:05.204Z,12.95
2019-04-21T07:09:53.088Z,13.10
2019-04-21T07:12:19.003Z,13.10
2019-04-21T07:14:58.983Z,13.44
2019-04-21T07:17:46.723Z,13.44
2019-04-21T07:22:44.659Z,13.73
2019-04-21T07:25:26.400Z,13.80
2019-04-21T07:27:53.788Z,13.80
2019-04-21T07:30:31.175Z,14.12
2019-04-21T07:33:20.699Z,14.12
2019-04-21T07:35:37.502Z,14.33
2019-04-21T07:38:19.587Z,14.50
2019-04-21T07:40:48.514Z,14.71
2019-04-21T07:43:21.934Z,14.72
2019-04-21T07:45:58.506Z,14.59
2019-04-21T07:48:37.537Z,14.67
2019-04-21T07:51:25.483Z,14.92
2019-04-21T07:54:05.641Z,15.07
2019-04-21T07:56:17.806Z,15.13
2019-04-21T07:59:02.273Z,15.13
2019-04-21T08:01:37.349Z,15.39
2019-04-21T08:04:38.259Z,15.39
2019-04-21T08:06:53.686Z,15.57
2019-04-21T08:09:29.446Z,15.60
2019-04-21T08:12:02.663Z,15.60
2019-04-21T08:14:43.533Z,15.81
2019-04-21T08:17:09.795Z,15.88
2019-04-21T08:19:46.168Z,16.13
2019-04-21T08:22:25.679Z,16.23
2019-04-21T08:25:05.714Z,16.40
2019-04-21T08:27:46.449Z,16.40
2019-04-21T08:30:12.865Z,16.59
2019-04-21T08:37:55.232Z,16.83
2019-04-21T08:40:36.655Z,16.83
2019-04-21T08:43:08.854Z,17.07
2019-04-21T08:45:51.245Z,17.40
2019-04-21T08:48:18.299Z,17.40
2019-04-21T08:51:08.282Z,17.75
2019-04-21T08:53:35.711Z,17.85
2019-04-21T08:56:10.532Z,17.95
2019-04-21T08:58:41.553Z,17.92
2019-04-21T09:01:23.902Z,18.14
2019-04-21T09:03:56.743Z,18.33
2019-04-21T09:09:05.287Z,18.60
2019-04-21T09:11:36.257Z,18.68
2019-04-21T09:14:13.857Z,18.73
2019-04-21T09:16:47.603Z,18.81
2019-04-21T09:19:38.536Z,18.81
2019-04-21T09:22:02.234Z,19.28
2019-04-21T09:24:33.345Z,19.28
2019-04-21T09:27:10.051Z,19.27
2019-04-21T09:29:36.656Z,19.53
2019-04-21T09:32:09.596Z,19.64
2019-04-21T09:34:43.744Z,19.81
2019-04-21T09:37:28.843Z,19.81
2019-04-21T09:39:55.154Z,20.02
2019-04-21T09:42:37.295Z,20.02
2019-04-21T09:45:06.174Z,20.00
2019-04-21T09:47:46.498Z,20.26
2019-04-21T09:50:15.135Z,20.38
2019-04-21T09:52:55.480Z,20.35
2019-04-21T09:55:31.499Z,20.62
2019-04-21T09:58:09.941Z,20.80
2019-04-21T10:00:47.653Z,20.70
2019-04-21T10:03:13.917Z,20.70
2019-04-21T10:05:47.489Z,20.83
2019-04-21T10:08:22.820Z,20.83
2019-04-21T10:10:56.967Z,21.18
2019-04-21T10:13:31.838Z,21.18
2019-04-21T10:16:05.799Z,21.28
2019-04-21T10:18:40.311Z,21.18
2019-04-21T10:21:15.456Z,21.48
2019-04-21T10:23:50.097Z,21.48
2019-04-21T10:26:24.360Z,21.44
2019-04-21T10:29:05.706Z,21.58
2019-04-21T10:31:34.650Z,21.58
2019-04-21T10:34:09.336Z,21.75
2019-04-21T10:36:43.193Z,22.08
2019-04-21T10:39:17.805Z,22.08
2019-04-21T10:41:57.353Z,22.12
2019-04-21T10:44:31.498Z,22.12
2019-04-21T10:47:06.788Z,22.17
2019-04-21T10:49:40.685Z,21.88
2019-04-21T10:52:15.240Z,22.10
2019-04-21T10:55:15.072Z,22.55
2019-04-21T10:57:24.496Z,22.51
2019-04-21T10:59:59.838Z,22.51
2019-04-21T11:02:34.791Z,22.74
2019-04-21T11:05:09.097Z,22.74
2019-04-21T11:07:57.601Z,23.07
2019-04-21T11:10:18.406Z,23.08
2019-04-21T11:12:52.690Z,23.08
2019-04-21T11:15:27.511Z,23.22
2019-04-21T11:18:01.795Z,23.22
2019-04-21T11:20:35.655Z,23.40
2019-04-21T11:23:10.191Z,23.52
2019-04-21T11:25:44.057Z,23.52
2019-04-21T11:28:18.644Z,23.60
2019-04-21T11:30:53.092Z,23.45
2019-04-21T11:33:27.190Z,23.45
2019-04-21T11:36:01.457Z,23.80
2019-04-21T11:38:51.328Z,23.91
2019-04-21T11:41:11.912Z,23.91
2019-04-21T11:43:45.771Z,24.41
2019-04-21T11:46:20.504Z,24.41
2019-04-21T11:48:54.701Z,24.43
2019-04-21T11:51:28.967Z,24.63
2019-04-21T11:54:02.874Z,24.63
2019-04-21T11:56:37.002Z,24.82
2019-04-21T11:59:11.978Z,24.95
2019-04-21T12:01:45.988Z,24.90
2019-04-21T12:04:19.702Z,25.11
2019-04-21T12:06:55.972Z,24.99
2019-04-21T12:09:30.171Z,25.20
2019-04-21T12:12:05.261Z,25.23
2019-04-21T12:14:39.698Z,25.34
2019-04-21T12:17:14.244Z,25.34
2019-04-21T12:19:48.563Z,25.34
2019-04-21T12:22:28.215Z,25.45
2019-04-21T12:24:57.817Z,25.34
2019-04-21T12:27:32.006Z,25.38
2019-04-21T12:30:06.846Z,25.38
2019-04-21T12:32:40.589Z,25.64
2019-04-21T12:35:15.652Z,25.83
2019-04-21T12:37:51.062Z,25.83
2019-04-21T12:40:26.092Z,26.01
2019-04-21T12:43:00.953Z,26.06
2019-04-21T12:45:35.947Z,25.80
2019-04-21T12:48:10.456Z,26.04
2019-04-21T12:50:45.717Z,26.03
2019-04-21T12:53:19.545Z,26.26
2019-04-21T12:55:53.818Z,26.21
2019-04-21T12:58:28.983Z,26.21
2019-04-21T13:01:03.008Z,26.30
2019-04-21T13:03:37.604Z,26.57
2019-04-21T13:06:11.770Z,26.57
2019-04-21T13:08:53.611Z,26.46
2019-04-21T13:11:21.432Z,26.39
2019-04-21T13:13:55.742Z,26.22
2019-04-21T13:16:29.601Z,26.08
2019-04-21T13:19:03.346Z,26.08
2019-04-21T13:21:38.130Z,26.06
2019-04-21T13:24:12.033Z,26.34
2019-04-21T13:26:52.380Z,26.55
2019-04-21T13:29:21.184Z,26.55
2019-04-21T13:31:56.175Z,26.73
2019-04-21T13:34:31.669Z,26.73
2019-04-21T13:37:05.782Z,27.17
2019-04-21T13:40:01.931Z,27.70
2019-04-21T13:42:24.075Z,27.70
2019-04-21T13:44:50.969Z,27.83
2019-04-21T13:47:25.047Z,28.21
2019-04-21T13:50:01.048Z,28.73
2019-04-21T13:52:34.545Z,29.22
2019-04-21T13:55:09.508Z,29.70
2019-04-21T13:57:44.369Z,30.08
2019-04-21T14:00:19.434Z,30.34
2019-04-21T14:02:54.561Z,30.34
2019-04-21T14:05:28.673Z,30.59
2019-04-21T14:08:03.150Z,30.98
2019-04-21T14:10:37.675Z,31.23
2019-04-21T14:13:12.148Z,31.43
2019-04-21T14:15:48.336Z,31.79
2019-04-21T14:18:22.553Z,32.21
2019-04-21T14:20:57.445Z,32.53
2019-04-21T14:23:38.072Z,32.98
2019-04-21T14:26:06.632Z,32.98
2019-04-21T14:28:41.051Z,33.13
2019-04-21T14:31:14.875Z,33.02
2019-04-21T14:33:49.941Z,33.35
2019-04-21T14:36:23.955Z,33.52
2019-04-21T14:38:58.731Z,33.40
2019-04-21T14:41:32.682Z,33.40
2019-04-21T14:44:06.925Z,33.24
2019-04-21T14:46:40.723Z,33.03
2019-04-21T14:49:15.199Z,33.03
2019-04-21T14:51:49.565Z,32.71
2019-04-21T14:54:24.701Z,32.71
2019-04-21T14:56:58.633Z,32.31
2019-04-21T14:59:33.273Z,32.29
2019-04-21T15:02:07.756Z,32.47
2019-04-21T15:04:41.793Z,32.45
2019-04-21T15:07:15.568Z,32.63
2019-04-21T15:10:01.163Z,32.85
2019-04-21T15:12:25.771Z,32.72
2019-04-21T15:15:00.164Z,32.60
2019-04-21T15:17:34.031Z,32.60
2019-04-21T15:20:11.165Z,33.55
2019-04-21T15:22:44.270Z,33.55
2019-04-21T15:25:18.410Z,33.92
2019-04-21T15:27:52.835Z,33.95
2019-04-21T15:30:26.879Z,33.86
2019-04-21T15:33:02.222Z,34.32
2019-04-21T15:35:37.329Z,34.45
2019-04-21T15:38:11.870Z,34.45
2019-04-21T15:40:52.155Z,34.31
2019-04-21T15:43:22.356Z,33.70
2019-04-21T15:45:57.101Z,33.27
2019-04-21T15:48:31.010Z,32.80
2019-04-21T15:51:05.659Z,32.73
2019-04-21T15:53:41.632Z,32.73
2019-04-21T15:56:17.325Z,32.97
2019-04-21T15:58:52.659Z,33.56
2019-04-21T16:01:26.652Z,33.89
2019-04-21T16:04:02.142Z,33.76
2019-04-21T16:06:37.229Z,34.13
2019-04-21T16:09:15.058Z,34.23
2019-04-21T16:11:46.652Z,34.23
2019-04-21T16:14:20.688Z,33.93
2019-04-21T16:16:54.635Z,33.90
2019-04-21T16:19:36.245Z,34.32
2019-04-21T16:22:10.818Z,34.20
2019-04-21T16:24:46.272Z,34.20
2019-04-21T16:27:21.305Z,34.02
2019-04-21T16:29:55.265Z,33.90
2019-04-21T16:32:30.155Z,33.77
2019-04-21T16:35:10.445Z,33.67
2019-04-21T16:37:41.607Z,32.75
2019-04-21T16:40:15.484Z,32.16
2019-04-21T16:42:50.089Z,32.16
2019-04-21T16:45:25.114Z,31.78
2019-04-21T16:47:59.147Z,31.22
2019-04-21T16:50:33.972Z,30.79
2019-04-21T16:53:08.230Z,30.17
2019-04-21T16:55:42.207Z,30.17
2019-04-21T16:58:20.640Z,29.91
2019-04-21T17:01:00.698Z,29.76
2019-04-21T17:03:28.307Z,29.95
2019-04-21T17:06:04.695Z,29.82
2019-04-21T17:08:38.747Z,29.90
2019-04-21T17:11:19.541Z,29.90
2019-04-21T17:13:50.006Z,30.20
2019-04-21T17:19:09.109Z,29.94
2019-04-21T17:21:34.746Z,29.85
2019-04-21T17:24:08.522Z,29.85
2019-04-21T17:26:44.734Z,29.72
2019-04-21T17:29:20.753Z,28.41
2019-04-21T17:31:55.305Z,28.41
2019-04-21T17:34:31.640Z,27.83
2019-04-21T17:37:05.526Z,27.32
2019-04-21T17:39:40.618Z,27.04
2019-04-21T17:42:26.419Z,27.04
2019-04-21T17:44:51.069Z,26.63
2019-04-21T17:47:34.198Z,26.29
2019-04-21T17:50:03.130Z,25.99
2019-04-21T17:52:42.860Z,25.99
2019-04-21T17:55:22.987Z,25.49
2019-04-21T17:58:09.290Z,25.49
2019-04-21T18:01:09.244Z,25.17
2019-04-21T18:03:35.308Z,24.64
2019-04-21T18:05:55.915Z,24.43
2019-04-21T18:08:38.705Z,24.43
2019-04-21T18:11:03.442Z,24.05
2019-04-21T18:13:26.925Z,24.05
2019-04-21T18:16:09.642Z,24.00
2019-04-21T18:18:36.832Z,23.70
2019-04-21T18:21:10.741Z,23.35
2019-04-21T18:23:52.846Z,23.26
2019-04-21T18:26:30.304Z,23.26
2019-04-21T18:28:58.571Z,23.14
2019-04-21T18:31:33.773Z,22.97
2019-04-21T18:34:11.085Z,22.89
2019-04-21T18:36:46.443Z,22.74
2019-04-21T18:39:34.187Z,22.53
2019-04-21T18:42:10.909Z,22.53
2019-04-21T18:45:11.060Z,22.18
2019-04-21T18:47:24.204Z,21.82
2019-04-21T18:49:46.010Z,21.70
2019-04-21T18:52:32.250Z,21.60
2019-04-21T18:55:09.548Z,21.60
2019-04-21T18:57:39.250Z,21.53
2019-04-21T19:00:15.346Z,21.45
2019-04-21T19:02:47.718Z,21.30
2019-04-21T19:05:21.216Z,21.22
2019-04-21T19:08:11.492Z,21.22
2019-04-21T19:10:50.727Z,21.00
2019-04-21T19:13:44.385Z,21.00
2019-04-21T19:16:22.830Z,20.84
2019-04-21T19:18:43.663Z,20.47
2019-04-21T19:21:06.169Z,20.40
2019-04-21T19:23:53.557Z,20.26
2019-04-21T19:29:03.512Z,20.15
2019-04-21T19:31:32.233Z,20.00
2019-04-21T19:33:59.851Z,19.95
2019-04-21T19:36:23.655Z,19.95
2019-04-21T19:39:06.840Z,19.86
2019-04-21T19:41:48.980Z,19.69
2019-04-21T19:44:32.340Z,19.57
2019-04-21T19:47:03.662Z,19.50
2019-04-21T19:49:45.250Z,19.43
2019-04-21T19:52:05.107Z,19.31
2019-04-21T19:54:36.314Z,19.22
2019-04-21T19:57:07.270Z,19.15
2019-04-21T19:59:47.678Z,19.15
2019-04-21T20:02:16.612Z,19.15
2019-04-21T20:04:59.000Z,18.98
2019-04-21T20:07:44.461Z,18.98
2019-04-21T20:10:23.967Z,18.82
2019-04-21T20:12:55.587Z,18.82
2019-04-21T20:15:37.395Z,18.75
2019-04-21T20:18:01.985Z,18.65
2019-04-21T20:20:24.864Z,18.58
2019-04-21T20:22:59.399Z,18.45
2019-04-21T20:25:41.808Z,18.35
2019-04-21T20:28:16.079Z,18.28
2019-04-21T20:31:02.434Z,18.21
2019-04-21T20:36:16.855Z,17.99
2019-04-21T20:38:44.472Z,17.99
2019-04-21T20:41:22.447Z,17.94
2019-04-21T20:44:00.500Z,17.94
2019-04-21T20:46:36.694Z,17.89
2019-04-21T20:49:02.764Z,17.79
2019-04-21T20:51:41.978Z,17.76
2019-04-21T20:54:23.117Z,17.63
2019-04-21T20:56:57.830Z,17.63
2019-04-21T20:59:29.302Z,17.51
2019-04-21T21:02:05.685Z,17.44
2019-04-21T21:04:32.661Z,17.38
2019-04-21T21:07:34.610Z,17.38
2019-04-21T21:10:00.467Z,17.29
2019-04-21T21:12:43.093Z,17.29
2019-04-21T21:15:02.582Z,17.18
2019-04-21T21:17:53.665Z,17.06
2019-04-21T21:20:24.830Z,17.06
2019-04-21T21:22:56.176Z,16.95
2019-04-21T21:25:40.243Z,16.95
2019-04-21T21:28:06.748Z,16.84
2019-04-21T21:30:37.521Z,16.76
2019-04-21T21:33:27.553Z,16.70
2019-04-21T21:35:56.810Z,16.70
2019-04-21T21:38:31.436Z,16.63
2019-04-21T21:40:59.598Z,16.57
2019-04-21T21:43:27.506Z,16.53
2019-04-21T21:46:11.170Z,16.45
2019-04-21T21:48:51.385Z,16.45
2019-04-21T21:51:22.774Z,16.44
2019-04-21T21:53:48.822Z,16.33
2019-04-21T21:56:24.618Z,16.32
2019-04-21T21:59:01.309Z,16.25
2019-04-21T22:01:38.845Z,16.20
2019-04-21T22:04:17.020Z,16.19
2019-04-21T22:06:50.656Z,16.15
2019-04-21T22:09:20.114Z,16.00
2019-04-21T22:11:57.915Z,15.95
2019-04-21T22:14:36.935Z,15.88
2019-04-21T22:17:24.689Z,15.88
2019-04-21T22:20:05.259Z,15.92
2019-04-21T22:22:34.155Z,15.92
2019-04-21T22:25:02.674Z,15.87
2019-04-21T22:27:27.380Z,15.87
2019-04-21T22:30:03.934Z,15.91
2019-04-21T22:32:38.245Z,15.80
2019-04-21T22:35:23.534Z,15.83
2019-04-21T22:38:02.034Z,15.83
2019-04-21T22:40:35.847Z,15.87
2019-04-21T22:43:11.927Z,15.77
2019-04-21T22:45:35.580Z,15.83
2019-04-21T22:48:14.333Z,15.83
2019-04-21T22:50:44.866Z,15.75
2019-04-21T22:53:19.767Z,15.66
2019-04-21T22:56:00.093Z,15.55
2019-04-21T22:58:33.967Z,15.55
2019-04-21T23:01:06.015Z,15.57
2019-04-21T23:03:48.997Z,15.57
2019-04-21T23:06:21.619Z,15.61
2019-04-21T23:08:51.274Z,15.57
2019-04-21T23:11:28.059Z,15.52
2019-04-21T23:14:05.035Z,15.45
2019-04-21T23:16:39.670Z,15.44
2019-04-21T23:19:30.816Z,15.39
2019-04-21T23:22:04.141Z,15.30
2019-04-21T23:24:45.685Z,15.31
2019-04-21T23:27:11.774Z,15.31
2019-04-21T23:30:03.322Z,15.17
2019-04-21T23:32:23.581Z,15.18
2019-04-21T23:34:45.590Z,15.18
2019-04-21T23:37:22.152Z,14.99
2019-04-21T23:40:01.017Z,15.02
2019-04-21T23:42:36.189Z,14.91
2019-04-21T23:45:08.723Z,14.97
2019-04-21T23:47:57.873Z,14.97
2019-04-21T23:50:30.696Z,14.83
2019-04-21T23:52:55.434Z,14.87
2019-04-21T23:55:29.454Z,14.78
2019-04-21T23:58:09.437Z,14.78
